Time;durP1;ratioP1;P1;durP2;ratioP2;P2;SDS_P1;SDS_P2;PMS_P1;PMS_P2;Temp;Humidity;BMP_temperature;BMP_pressure;BME280_temperature;BME280_humidity;BME280_pressure;Samples;Min_cycle;Max_cycle;Signal;HPM_P1;HPM_P2
2023/06/09 00:00:52;;;;;;;4.18;3.78;;;20.80;99.90;;;;;;5090949;28;20237;-72
2023/06/09 00:03:21;;;;;;;8.27;4.47;;;20.80;99.90;;;;;;5091290;28;20209;-72
2023/06/09 00:05:48;;;;;;;4.70;3.55;;;20.80;99.90;;;;;;5090101;28;20283;-72
2023/06/09 00:08:15;;;;;;;6.32;3.60;;;20.80;99.90;;;;;;5090931;28;20731;-71
2023/06/09 00:10:42;;;;;;;5.25;3.92;;;20.70;99.90;;;;;;5091012;28;20237;-72
2023/06/09 00:13:09;;;;;;;4.88;3.40;;;20.70;99.90;;;;;;5091714;28;20205;-72
2023/06/09 00:15:36;;;;;;;10.18;4.07;;;20.70;99.90;;;;;;5091282;28;20229;-72
2023/06/09 00:18:05;;;;;;;10.20;4.65;;;20.70;99.90;;;;;;5090719;28;20751;-71
2023/06/09 00:20:34;;;;;;;6.30;3.47;;;20.70;99.90;;;;;;5090819;28;20237;-71
2023/06/09 00:23:01;;;;;;;4.47;4.07;;;20.70;99.90;;;;;;5090450;28;20213;-71
2023/06/09 00:25:28;;;;;;;6.60;3.67;;;20.70;99.90;;;;;;5090753;28;20236;-71
2023/06/09 00:27:55;;;;;;;4.32;3.22;;;20.70;99.90;;;;;;5090770;28;20244;-70
2023/06/09 00:30:22;;;;;;;5.93;3.88;;;20.70;99.90;;;;;;5090843;28;20688;-71
2023/06/09 00:32:49;;;;;;;5.03;3.63;;;20.70;99.90;;;;;;5090417;28;20292;-71
2023/06/09 00:35:16;;;;;;;7.63;3.55;;;20.70;99.90;;;;;;5090636;28;20243;-71
2023/06/09 00:37:46;;;;;;;7.15;4.28;;;20.70;99.90;;;;;;5090454;28;20233;-71
2023/06/09 00:40:14;;;;;;;12.75;4.68;;;20.70;99.90;;;;;;5090963;28;20216;-72
2023/06/09 00:42:42;;;;;;;4.95;3.70;;;20.70;99.90;;;;;;5090761;28;20202;-71
2023/06/09 00:45:09;;;;;;;5.28;3.28;;;20.70;99.90;;;;;;5090652;28;20202;-71
2023/06/09 00:47:36;;;;;;;5.05;3.70;;;20.70;99.90;;;;;;5090585;28;20635;-71
2023/06/09 00:50:04;;;;;;;6.38;4.03;;;20.70;99.90;;;;;;5089973;28;20254;-71
2023/06/09 00:52:32;;;;;;;10.07;4.32;;;20.70;99.90;;;;;;5090472;28;20241;-71
2023/06/09 00:55:01;;;;;;;4.22;3.83;;;20.70;99.90;;;;;;5089927;28;20244;-71
2023/06/09 00:57:29;;;;;;;10.50;4.38;;;20.60;99.90;;;;;;5090536;28;20275;-71
2023/06/09 00:59:57;;;;;;;7.70;3.22;;;20.60;99.90;;;;;;5089902;28;20357;-70
2023/06/09 01:02:24;;;;;;;7.50;3.30;;;20.60;99.90;;;;;;5090442;28;20665;-71
2023/06/09 01:04:52;;;;;;;4.30;3.63;;;20.60;99.90;;;;;;5090257;28;20592;-72
2023/06/09 01:07:30;;;;;;;5.57;4.05;;;20.60;99.90;;;;;;5089949;28;20229;-71
2023/06/09 01:10:06;;;;;;;5.97;3.47;;;20.60;99.90;;;;;;5090290;28;20209;-71
2023/06/09 01:12:41;;;;;;;3.80;3.45;;;20.60;99.90;;;;;;5090444;28;20201;-73
2023/06/09 01:15:17;;;;;;;4.70;3.30;;;20.60;99.90;;;;;;5090371;28;20244;-70
2023/06/09 01:17:48;;;;;;;8.40;3.75;;;20.60;99.90;;;;;;5091909;28;20247;-73
2023/06/09 01:20:23;;;;;;;5.13;4.10;;;20.60;99.90;;;;;;5094389;28;20205;-73
2023/06/09 01:22:54;;;;;;;4.18;3.60;;;20.60;99.90;;;;;;5093936;28;20619;-70
2023/06/09 01:25:34;;;;;;;6.57;3.83;;;20.60;99.90;;;;;;5094178;28;20233;-71
2023/06/09 01:28:04;;;;;;;4.85;3.53;;;20.60;99.90;;;;;;5094165;28;20324;-70
2023/06/09 01:30:33;;;;;;;7.60;5.03;;;20.60;99.90;;;;;;5094848;28;20560;-73
2023/06/09 01:33:02;;;;;;;6.88;3.95;;;20.60;99.90;;;;;;5106836;28;20297;-73
2023/06/09 01:35:29;;;;;;;7.53;3.70;;;20.60;99.90;;;;;;5093893;28;20205;-73
2023/06/09 01:37:57;;;;;;;4.68;3.20;;;20.60;99.90;;;;;;5093596;28;20229;-73
2023/06/09 01:40:25;;;;;;;6.85;4.18;;;20.60;99.90;;;;;;5094076;28;20662;-71
2023/06/09 01:42:58;;;;;;;8.75;3.55;;;20.60;99.90;;;;;;5093544;28;20693;-70
2023/06/09 01:45:25;;;;;;;5.70;4.22;;;20.60;99.90;;;;;;5094181;28;20241;-71
2023/06/09 01:47:53;;;;;;;8.70;4.18;;;20.60;99.90;;;;;;5093538;28;20300;-73
2023/06/09 01:50:28;;;;;;;5.18;3.42;;;20.60;99.90;;;;;;5093895;28;20237;-73
2023/06/09 01:53:01;;;;;;;7.82;4.60;;;20.60;99.90;;;;;;5093699;28;20241;-71
2023/06/09 01:55:31;;;;;;;3.58;3.15;;;20.60;99.90;;;;;;5093654;28;20252;-73
2023/06/09 01:58:05;;;;;;;4.95;3.90;;;20.60;99.90;;;;;;5093676;28;20683;-72
2023/06/09 02:00:34;;;;;;;4.35;3.20;;;20.60;99.90;;;;;;5092710;28;20204;-72
2023/06/09 02:03:05;;;;;;;7.00;3.70;;;20.60;99.90;;;;;;5093446;28;20209;-73
2023/06/09 02:05:34;;;;;;;5.55;3.60;;;20.60;99.90;;;;;;5093463;28;20197;-73
2023/06/09 02:08:01;;;;;;;4.18;3.17;;;20.60;99.90;;;;;;5093330;28;20245;-74
2023/06/09 02:10:30;;;;;;;3.95;3.65;;;20.60;99.90;;;;;;5093473;28;20236;-74
2023/06/09 02:13:11;;;;;;;4.53;3.78;;;20.60;99.90;;;;;;5093221;28;20241;-73
2023/06/09 02:15:38;;;;;;;4.45;3.80;;;20.60;99.90;;;;;;5093410;28;20229;-73
2023/06/09 02:18:05;;;;;;;6.95;3.95;;;20.60;99.90;;;;;;5093031;28;20280;-71
2023/06/09 02:20:32;;;;;;;7.25;3.63;;;20.60;99.90;;;;;;5104177;28;20696;-72
2023/06/09 02:22:58;;;;;;;12.05;5.55;;;20.60;99.90;;;;;;5112449;28;20247;-72
2023/06/09 02:25:28;;;;;;;6.93;3.47;;;20.60;99.90;;;;;;5110743;28;20289;-71
2023/06/09 02:27:55;;;;;;;5.15;3.42;;;20.60;99.90;;;;;;5111776;28;20300;-72
2023/06/09 02:30:23;;;;;;;6.25;4.40;;;20.60;99.90;;;;;;5108071;28;20672;-71
2023/06/09 02:32:50;;;;;;;6.32;4.95;;;20.60;99.90;;;;;;5098566;28;20232;-71
2023/06/09 02:35:17;;;;;;;6.90;4.18;;;20.60;99.90;;;;;;5108524;28;20683;-71
2023/06/09 02:37:44;;;;;;;5.40;3.90;;;20.60;99.90;;;;;;5100269;28;20253;-71
2023/06/09 02:40:12;;;;;;;4.75;3.83;;;20.60;99.90;;;;;;5092674;28;20204;-71
2023/06/09 02:42:39;;;;;;;8.23;4.97;;;20.60;99.90;;;;;;5092513;28;20205;-70
2023/06/09 02:45:07;;;;;;;4.75;3.50;;;20.60;99.90;;;;;;5092429;28;20205;-72
2023/06/09 02:47:35;;;;;;;5.25;3.60;;;20.60;99.90;;;;;;5092891;28;20708;-71
2023/06/09 02:50:03;;;;;;;4.38;3.97;;;20.70;99.90;;;;;;5097210;28;20284;-72
2023/06/09 02:52:31;;;;;;;5.03;4.00;;;20.70;99.90;;;;;;5092674;28;20208;-71
2023/06/09 02:54:58;;;;;;;11.27;4.68;;;20.70;99.90;;;;;;5091979;28;20222;-72
2023/06/09 02:57:25;;;;;;;6.40;3.70;;;20.60;99.90;;;;;;5092573;28;20654;-72
2023/06/09 02:59:52;;;;;;;5.63;4.28;;;20.70;99.90;;;;;;5092149;28;20212;-72
2023/06/09 03:02:19;;;;;;;3.72;3.10;;;20.70;99.90;;;;;;5092419;28;20240;-72
2023/06/09 03:04:47;;;;;;;3.70;2.92;;;20.70;99.90;;;;;;5091898;28;20634;-72
2023/06/09 03:07:14;;;;;;;8.38;4.35;;;20.70;99.90;;;;;;5092147;28;20681;-72
2023/06/09 03:09:41;;;;;;;5.75;4.07;;;20.70;99.90;;;;;;5092156;28;20208;-72
2023/06/09 03:12:09;;;;;;;4.65;3.78;;;20.60;99.90;;;;;;5092613;28;20229;-72
2023/06/09 03:14:37;;;;;;;4.85;3.72;;;20.70;99.90;;;;;;5092777;28;20205;-72
2023/06/09 03:17:04;;;;;;;4.22;3.50;;;20.70;99.90;;;;;;5091724;28;20356;-73
2023/06/09 03:19:31;;;;;;;6.30;4.30;;;20.70;99.90;;;;;;5092172;28;20205;-73
2023/06/09 03:22:02;;;;;;;5.15;3.83;;;20.80;99.90;;;;;;5091834;28;20233;-71
2023/06/09 03:24:29;;;;;;;4.40;4.00;;;20.80;99.90;;;;;;5092116;28;20206;-72
2023/06/09 03:26:56;;;;;;;5.97;3.80;;;20.70;99.90;;;;;;5091467;28;20217;-70
2023/06/09 03:29:23;;;;;;;5.35;3.17;;;20.80;99.90;;;;;;5091981;28;20256;-73
2023/06/09 03:31:50;;;;;;;5.95;3.28;;;20.80;99.90;;;;;;5091220;28;20754;-70
2023/06/09 03:34:17;;;;;;;5.50;4.13;;;20.80;99.90;;;;;;5091895;28;20287;-72
2023/06/09 03:36:44;;;;;;;10.35;3.92;;;20.80;99.90;;;;;;5091786;28;20269;-73
2023/06/09 03:39:12;;;;;;;4.63;3.40;;;20.80;99.90;;;;;;5092387;28;20205;-72
2023/06/09 03:41:39;;;;;;;3.40;3.10;;;20.80;99.90;;;;;;5092142;28;20684;-72
2023/06/09 03:44:06;;;;;;;8.52;3.30;;;20.80;99.90;;;;;;5091396;28;20237;-73
2023/06/09 03:46:33;;;;;;;8.90;3.55;;;20.80;99.90;;;;;;5091470;28;20244;-72
2023/06/09 03:48:59;;;;;;;6.20;4.03;;;20.80;99.90;;;;;;5090990;28;20290;-72
2023/06/09 03:51:27;;;;;;;3.45;3.13;;;20.80;99.90;;;;;;5091942;28;20247;-72
2023/06/09 03:53:54;;;;;;;5.57;3.92;;;20.80;99.90;;;;;;5090960;28;20220;-72
2023/06/09 03:56:22;;;;;;;7.35;4.63;;;20.80;99.90;;;;;;5091401;28;20209;-73
2023/06/09 03:58:49;;;;;;;7.03;5.32;;;20.90;99.90;;;;;;5090974;28;20233;-73
2023/06/09 04:01:17;;;;;;;3.40;3.10;;;20.90;99.90;;;;;;5091193;28;20335;-73
2023/06/09 04:03:44;;;;;;;4.38;3.42;;;20.80;99.90;;;;;;5091001;28;20231;-71
2023/06/09 04:06:11;;;;;;;6.88;5.05;;;20.90;99.90;;;;;;5091401;28;20290;-72
2023/06/09 04:08:38;;;;;;;6.32;3.50;;;20.90;99.90;;;;;;5091897;28;20298;-70
2023/06/09 04:11:05;;;;;;;5.82;4.57;;;20.90;99.90;;;;;;5090932;28;20237;-72
2023/06/09 04:13:33;;;;;;;4.75;3.80;;;20.90;99.90;;;;;;5091344;28;20237;-72
2023/06/09 04:16:00;;;;;;;5.60;3.47;;;20.90;99.90;;;;;;5090489;28;20264;-70
2023/06/09 04:18:27;;;;;;;10.68;3.30;;;20.90;99.90;;;;;;5090943;28;20264;-71
2023/06/09 04:20:54;;;;;;;4.38;3.50;;;20.80;99.90;;;;;;5090949;28;20205;-73
2023/06/09 04:23:21;;;;;;;5.25;3.95;;;20.90;99.90;;;;;;5090901;28;20244;-72
2023/06/09 04:25:47;;;;;;;7.63;4.40;;;20.90;99.90;;;;;;5090546;28;20270;-70
2023/06/09 04:28:14;;;;;;;4.82;3.30;;;20.90;99.90;;;;;;5090882;28;20681;-72
2023/06/09 04:30:43;;;;;;;4.65;3.13;;;20.90;99.90;;;;;;5090650;28;20233;-71
2023/06/09 04:33:12;;;;;;;5.53;3.92;;;20.90;99.90;;;;;;5091003;28;20209;-72
2023/06/09 04:35:41;;;;;;;5.15;3.80;;;20.90;99.90;;;;;;5091527;28;20258;-72
2023/06/09 04:38:09;;;;;;;5.38;4.10;;;20.90;99.90;;;;;;5090881;28;20244;-70
2023/06/09 04:40:37;;;;;;;8.75;3.63;;;20.90;99.90;;;;;;5091165;28;20330;-71
2023/06/09 04:43:05;;;;;;;7.18;3.65;;;20.90;99.90;;;;;;5090268;28;20215;-70
2023/06/09 04:45:34;;;;;;;4.75;3.35;;;20.90;99.90;;;;;;5090294;28;20201;-72
2023/06/09 04:48:02;;;;;;;9.52;3.88;;;20.90;99.90;;;;;;5090364;28;20212;-72
2023/06/09 04:50:32;;;;;;;5.95;4.20;;;20.90;99.90;;;;;;5090448;28;20237;-72
2023/06/09 04:52:59;;;;;;;10.30;4.75;;;20.90;99.90;;;;;;5089865;28;20205;-73
2023/06/09 04:55:26;;;;;;;3.88;3.35;;;20.90;99.90;;;;;;5090209;28;20221;-72
2023/06/09 04:57:55;;;;;;;4.70;3.67;;;21.00;99.90;;;;;;5089932;28;20272;-71
2023/06/09 05:00:22;;;;;;;6.05;3.70;;;21.00;99.90;;;;;;5090209;28;20576;-72
2023/06/09 05:02:49;;;;;;;6.75;4.05;;;21.00;99.90;;;;;;5089491;28;20251;-73
2023/06/09 05:05:18;;;;;;;8.20;4.75;;;21.00;99.90;;;;;;5090514;28;20209;-73
2023/06/09 05:07:45;;;;;;;4.50;3.53;;;21.00;99.90;;;;;;5089911;28;20233;-73
2023/06/09 05:10:11;;;;;;;5.38;4.15;;;21.00;99.90;;;;;;5090352;28;20230;-73
2023/06/09 05:12:39;;;;;;;4.75;3.65;;;21.00;99.90;;;;;;5090834;28;20700;-73
2023/06/09 05:15:07;;;;;;;6.57;4.75;;;21.00;99.90;;;;;;5090411;28;20244;-73
2023/06/09 05:17:36;;;;;;;3.50;2.90;;;21.00;99.90;;;;;;5090387;28;20577;-71
2023/06/09 05:20:05;;;;;;;6.90;4.13;;;21.00;99.90;;;;;;5089893;28;20213;-73
2023/06/09 05:22:33;;;;;;;7.50;3.80;;;21.00;99.90;;;;;;5090329;28;20262;-72
2023/06/09 05:25:00;;;;;;;7.18;4.20;;;21.00;99.90;;;;;;5089828;28;20229;-71
2023/06/09 05:27:27;;;;;;;4.38;3.97;;;21.00;99.90;;;;;;5090372;28;20249;-71
2023/06/09 05:29:55;;;;;;;6.68;3.97;;;21.00;99.90;;;;;;5089923;28;20241;-74
2023/06/09 05:32:22;;;;;;;5.80;5.18;;;21.00;99.90;;;;;;5090358;28;20254;-74
2023/06/09 05:34:49;;;;;;;5.32;3.88;;;21.00;99.90;;;;;;5089606;28;20232;-71
2023/06/09 05:37:16;;;;;;;5.32;3.95;;;21.00;99.90;;;;;;5090156;28;20229;-73
2023/06/09 05:39:45;;;;;;;5.32;3.35;;;21.00;99.90;;;;;;5090428;28;20263;-72
2023/06/09 05:42:12;;;;;;;4.63;3.60;;;21.00;99.90;;;;;;5089618;28;20209;-72
2023/06/09 05:44:39;;;;;;;3.83;3.17;;;21.10;99.90;;;;;;5090686;28;20259;-73
2023/06/09 05:47:06;;;;;;;5.40;3.88;;;21.10;99.90;;;;;;5089809;28;20576;-73
2023/06/09 05:49:34;;;;;;;4.18;3.65;;;21.10;99.90;;;;;;5090115;28;20240;-73
2023/06/09 05:52:01;;;;;;;5.07;4.45;;;21.10;99.90;;;;;;5089271;28;20205;-73
2023/06/09 05:54:28;;;;;;;5.50;3.90;;;21.10;99.90;;;;;;5090141;28;20304;-74
2023/06/09 05:56:57;;;;;;;4.53;4.13;;;21.10;99.90;;;;;;5089434;28;20310;-74
2023/06/09 05:59:24;;;;;;;7.38;4.13;;;21.10;99.90;;;;;;5095065;28;20320;-73
2023/06/09 06:01:51;;;;;;;7.63;3.55;;;21.20;99.90;;;;;;5097299;28;20629;-73
2023/06/09 06:04:18;;;;;;;5.93;4.05;;;21.20;99.90;;;;;;5097203;28;20294;-73
2023/06/09 06:06:45;;;;;;;6.97;3.78;;;21.20;99.90;;;;;;5102356;28;20244;-72
2023/06/09 06:09:13;;;;;;;6.68;2.88;;;21.20;99.90;;;;;;5098328;28;20729;-73
2023/06/09 06:11:40;;;;;;;4.85;3.88;;;21.20;99.90;;;;;;5102110;28;20202;-72
2023/06/09 06:14:08;;;;;;;4.80;3.72;;;21.20;99.90;;;;;;5108327;28;20236;-73
2023/06/09 06:16:35;;;;;;;5.25;4.22;;;21.10;99.90;;;;;;5102413;28;20232;-75
2023/06/09 06:19:02;;;;;;;7.70;3.97;;;21.10;99.90;;;;;;5096646;28;20279;-73
2023/06/09 06:21:29;;;;;;;5.85;4.20;;;21.10;99.90;;;;;;5107167;28;20236;-73
2023/06/09 06:23:56;;;;;;;9.27;6.05;;;21.10;99.90;;;;;;5096630;28;20297;-73
2023/06/09 06:26:22;;;;;;;7.97;4.00;;;21.10;99.90;;;;;;5105383;28;20206;-72
2023/06/09 06:28:49;;;;;;;7.97;4.22;;;20.90;99.90;;;;;;5103227;28;20205;-73
2023/06/09 06:31:18;;;;;;;16.58;13.38;;;20.80;99.90;;;;;;5103433;28;20210;-73
2023/06/09 06:33:45;;;;;;;9.15;4.80;;;20.80;99.90;;;;;;5098414;28;20627;-73
2023/06/09 06:36:13;;;;;;;17.70;14.50;;;20.70;99.90;;;;;;5101825;28;20575;-73
2023/06/09 06:38:40;;;;;;;7.28;5.13;;;20.70;99.90;;;;;;5100534;28;20255;-73
2023/06/09 06:41:06;;;;;;;10.30;5.45;;;20.60;99.90;;;;;;5099857;28;20588;-72
2023/06/09 06:43:33;;;;;;;6.25;4.43;;;20.50;99.90;;;;;;5098924;28;20224;-72
2023/06/09 06:46:01;;;;;;;6.65;4.68;;;20.50;99.90;;;;;;5100161;28;20241;-72
2023/06/09 06:48:29;;;;;;;7.18;5.85;;;20.30;1.00;;;;;;5099004;28;20202;-72
2023/06/09 06:50:56;;;;;;;6.90;4.05;;;20.30;1.00;;;;;;5098466;28;20278;-72
2023/06/09 06:53:23;;;;;;;6.28;4.47;;;20.30;1.00;;;;;;5093500;28;20209;-71
2023/06/09 06:55:50;;;;;;;5.07;4.50;;;20.30;1.00;;;;;;5094316;28;20233;-72
2023/06/09 06:58:17;;;;;;;6.43;5.45;;;20.30;1.00;;;;;;5094050;28;20651;-72
2023/06/09 07:00:44;;;;;;;7.80;4.95;;;20.30;99.90;;;;;;5092148;28;20692;-72
2023/06/09 07:03:12;;;;;;;8.32;5.20;;;20.40;99.90;;;;;;5092949;28;20237;-72
2023/06/09 07:05:40;;;;;;;7.93;4.68;;;20.50;99.90;;;;;;5093072;28;20206;-72
2023/06/09 07:08:07;;;;;;;6.63;4.53;;;20.60;99.90;;;;;;5092369;28;20213;-72
2023/06/09 07:10:34;;;;;;;5.75;5.13;;;20.60;99.90;;;;;;5092328;28;20241;-72
2023/06/09 07:13:01;;;;;;;9.90;5.50;;;20.70;99.90;;;;;;5090175;28;20220;-72
2023/06/09 07:15:28;;;;;;;9.32;4.43;;;20.80;99.90;;;;;;5090454;28;20241;-72
2023/06/09 07:17:55;;;;;;;7.97;4.45;;;20.80;99.90;;;;;;5090846;28;20291;-71
2023/06/09 07:20:22;;;;;;;5.82;4.32;;;20.80;99.90;;;;;;5092503;28;20206;-71
2023/06/09 07:22:52;;;;;;;6.53;4.50;;;20.90;99.90;;;;;;5092048;28;20251;-72
2023/06/09 07:25:19;;;;;;;6.38;4.40;;;20.90;99.90;;;;;;5091835;28;20216;-72
2023/06/09 07:27:46;;;;;;;6.38;4.75;;;20.90;99.90;;;;;;5093139;28;20204;-73
2023/06/09 07:30:14;;;;;;;5.57;4.20;;;21.00;99.90;;;;;;5106960;28;20232;-72
2023/06/09 07:32:41;;;;;;;8.50;5.00;;;21.10;99.90;;;;;;5105402;28;20293;-72
2023/06/09 07:35:12;;;;;;;5.43;4.70;;;21.10;99.90;;;;;;5103906;28;20201;-72
2023/06/09 07:37:40;;;;;;;4.18;3.88;;;21.10;99.90;;;;;;5106156;28;20204;-72
2023/06/09 07:40:10;;;;;;;5.32;4.75;;;21.20;99.90;;;;;;5102716;28;20209;-73
2023/06/09 07:42:37;;;;;;;7.03;5.05;;;21.20;99.90;;;;;;5107101;28;20208;-72
2023/06/09 07:45:04;;;;;;;5.18;4.53;;;21.20;99.90;;;;;;5102000;28;20232;-72
2023/06/09 07:47:31;;;;;;;6.25;4.63;;;21.20;99.90;;;;;;5097148;28;20205;-73
2023/06/09 07:49:58;;;;;;;6.45;4.78;;;21.30;99.90;;;;;;5101031;28;20657;-73
2023/06/09 07:52:25;;;;;;;5.90;4.65;;;21.20;99.90;;;;;;5096998;28;20233;-73
2023/06/09 07:54:52;;;;;;;5.60;4.97;;;21.20;99.90;;;;;;5098734;28;20209;-72
2023/06/09 07:57:20;;;;;;;7.03;4.88;;;21.20;99.90;;;;;;5099009;28;20259;-73
2023/06/09 07:59:47;;;;;;;5.97;5.47;;;21.30;99.90;;;;;;5090618;28;20233;-74
2023/06/09 08:02:14;;;;;;;5.70;5.03;;;21.30;99.90;;;;;;5091188;28;20205;-72
2023/06/09 08:04:41;;;;;;;8.63;5.75;;;21.30;99.90;;;;;;5090664;28;20742;-73
2023/06/09 08:07:08;;;;;;;7.93;5.47;;;21.30;99.90;;;;;;5090408;28;20206;-73
2023/06/09 08:09:35;;;;;;;7.28;5.07;;;21.20;99.90;;;;;;5090340;28;20255;-71
2023/06/09 08:12:02;;;;;;;5.28;4.45;;;21.20;99.90;;;;;;5095545;28;20220;-74
2023/06/09 08:14:31;;;;;;;11.43;5.78;;;21.20;99.90;;;;;;5100149;28;20247;-73
2023/06/09 08:16:57;;;;;;;5.20;4.50;;;21.20;99.90;;;;;;5098003;28;20676;-72
2023/06/09 08:19:24;;;;;;;6.38;5.43;;;21.20;99.90;;;;;;5095274;28;20272;-72
2023/06/09 08:21:52;;;;;;;6.38;5.60;;;21.20;99.90;;;;;;5089205;28;20206;-72
2023/06/09 08:24:19;;;;;;;6.70;5.20;;;21.20;99.90;;;;;;5093858;28;20712;-72
2023/06/09 08:26:48;;;;;;;4.97;4.57;;;21.20;99.90;;;;;;5098329;28;20211;-72
2023/06/09 08:29:16;;;;;;;5.35;4.93;;;21.20;99.90;;;;;;5095519;28;20197;-72
2023/06/09 08:31:45;;;;;;;9.07;5.22;;;21.20;99.90;;;;;;5103710;28;20728;-72
2023/06/09 08:34:12;;;;;;;5.82;4.88;;;21.20;99.90;;;;;;5094960;28;20293;-72
2023/06/09 08:36:38;;;;;;;4.78;4.30;;;21.20;99.90;;;;;;5102204;28;20204;-74
2023/06/09 08:39:05;;;;;;;7.25;5.38;;;21.20;99.90;;;;;;5097196;28;20294;-73
2023/06/09 08:41:37;;;;;;;8.45;5.47;;;21.20;99.90;;;;;;5093427;28;20205;-73
2023/06/09 08:44:05;;;;;;;8.65;6.47;;;21.20;99.90;;;;;;5100588;28;20699;-73
2023/06/09 08:46:35;;;;;;;5.75;5.25;;;21.20;99.90;;;;;;5098416;28;20212;-72
2023/06/09 08:49:04;;;;;;;5.22;4.30;;;21.20;99.90;;;;;;5099692;28;20270;-72
2023/06/09 08:51:32;;;;;;;5.68;5.18;;;21.30;99.90;;;;;;5096286;28;20293;-73
2023/06/09 08:54:00;;;;;;;5.68;4.53;;;21.30;99.90;;;;;;5102200;28;20265;-73
2023/06/09 08:56:27;;;;;;;6.40;5.78;;;21.30;99.90;;;;;;5106667;28;20265;-75
2023/06/09 08:58:56;;;;;;;8.23;5.30;;;21.30;99.90;;;;;;5089607;28;20232;-73
2023/06/09 09:01:23;;;;;;;8.63;5.60;;;21.30;99.90;;;;;;5090167;28;20255;-74
2023/06/09 09:03:50;;;;;;;5.68;5.18;;;21.50;99.90;;;;;;5089228;28;20249;-73
2023/06/09 09:06:19;;;;;;;8.65;5.22;;;21.60;99.90;;;;;;5089226;28;20562;-73
2023/06/09 09:08:46;;;;;;;7.05;6.30;;;21.70;99.90;;;;;;5089534;28;20205;-73
2023/06/09 09:11:14;;;;;;;6.35;5.65;;;21.70;99.90;;;;;;5092886;28;20233;-73
2023/06/09 09:13:41;;;;;;;12.00;6.90;;;21.70;99.90;;;;;;5093762;28;20232;-72
2023/06/09 09:16:13;;;;;;;6.20;5.28;;;21.80;99.90;;;;;;5095709;28;20676;-71
2023/06/09 09:18:45;;;;;;;7.20;5.35;;;21.90;99.90;;;;;;5098254;28;20779;-73
2023/06/09 09:21:22;;;;;;;8.65;5.82;;;22.00;99.90;;;;;;5094497;28;20676;-72
2023/06/09 09:23:56;;;;;;;6.40;5.88;;;22.10;99.90;;;;;;5098199;28;20217;-72
2023/06/09 09:26:28;;;;;;;5.78;4.85;;;22.10;99.90;;;;;;5095944;28;20220;-73
2023/06/09 09:28:55;;;;;;;10.13;5.57;;;22.10;99.90;;;;;;5090908;28;20205;-72
2023/06/09 09:31:31;;;;;;;8.32;5.38;;;21.90;99.90;;;;;;5097591;28;20255;-73
2023/06/09 09:33:58;;;;;;;5.53;4.95;;;21.80;99.90;;;;;;5100758;28;20198;-71
2023/06/09 09:36:27;;;;;;;7.53;4.80;;;21.80;99.90;;;;;;5098326;28;20246;-72
2023/06/09 09:38:56;;;;;;;8.63;5.22;;;21.80;99.90;;;;;;5094890;28;20229;-71
2023/06/09 09:41:23;;;;;;;8.02;4.75;;;21.70;99.90;;;;;;5091763;28;20553;-72
2023/06/09 09:43:56;;;;;;;7.78;5.32;;;21.60;99.90;;;;;;5098004;28;20239;-72
2023/06/09 09:46:23;;;;;;;7.93;5.57;;;21.60;99.90;;;;;;5095881;28;20591;-72
2023/06/09 09:48:50;;;;;;;5.78;5.05;;;21.60;99.90;;;;;;5097524;28;20671;-73
2023/06/09 09:51:20;;;;;;;6.80;6.15;;;21.50;99.90;;;;;;5094775;28;20248;-72
2023/06/09 09:53:50;;;;;;;9.77;5.75;;;21.50;99.90;;;;;;5103047;28;20266;-73
2023/06/09 09:56:21;;;;;;;5.95;5.45;;;21.50;99.90;;;;;;5094847;28;20202;-71
2023/06/09 09:58:52;;;;;;;8.50;5.70;;;21.40;99.90;;;;;;5093132;28;20282;-72
2023/06/09 10:01:22;;;;;;;7.47;6.68;;;21.30;99.90;;;;;;5112096;28;20240;-72
2023/06/09 10:03:50;;;;;;;8.40;5.95;;;21.40;99.90;;;;;;5112811;28;20206;-72
2023/06/09 10:06:20;;;;;;;7.60;5.72;;;21.40;99.90;;;;;;5111489;28;20668;-72
2023/06/09 10:08:49;;;;;;;7.68;6.55;;;21.50;99.90;;;;;;5112127;28;20266;-73
2023/06/09 10:11:16;;;;;;;11.32;7.18;;;21.50;99.90;;;;;;5109519;28;20677;-73
2023/06/09 10:13:45;;;;;;;10.90;8.20;;;21.60;99.90;;;;;;5102278;28;20669;-73
2023/06/09 10:16:13;;;;;;;7.57;6.88;;;21.60;99.90;;;;;;5107087;28;20680;-72
2023/06/09 10:18:42;;;;;;;7.60;6.38;;;21.60;99.90;;;;;;5103482;28;20232;-73
2023/06/09 10:21:11;;;;;;;8.40;7.60;;;21.80;99.90;;;;;;5095118;28;20206;-72
2023/06/09 10:23:40;;;;;;;8.07;7.20;;;22.00;99.90;;;;;;5100005;28;20201;-72
2023/06/09 10:26:09;;;;;;;10.10;6.60;;;22.10;99.90;;;;;;5102108;28;20209;-71
2023/06/09 10:28:37;;;;;;;15.15;8.73;;;22.20;99.90;;;;;;5099111;28;20198;-71
2023/06/09 10:31:07;;;;;;;13.27;7.13;;;22.30;99.90;;;;;;5097804;28;20217;-71
2023/06/09 10:33:38;;;;;;;8.25;6.28;;;22.30;99.90;;;;;;5102993;28;20574;-71
2023/06/09 10:36:07;;;;;;;8.93;6.28;;;22.30;99.90;;;;;;5097693;28;20209;-72
2023/06/09 10:38:41;;;;;;;7.63;6.65;;;22.50;99.90;;;;;;5101499;28;20197;-72
2023/06/09 10:41:16;;;;;;;9.60;6.50;;;22.60;99.90;;;;;;5097464;28;20741;-71
2023/06/09 10:44:08;;;;;;;12.00;6.18;;;22.60;99.90;;;;;;5103538;28;20205;-72
2023/06/09 10:46:42;;;;;;;7.68;6.90;;;22.40;99.90;;;;;;5097641;28;20233;-72
2023/06/09 10:49:24;;;;;;;7.70;6.22;;;22.40;99.90;;;;;;5103793;28;20208;-72
2023/06/09 10:51:51;;;;;;;7.97;6.75;;;22.50;99.90;;;;;;5098984;28;20233;-73
2023/06/09 10:54:23;;;;;;;10.70;6.13;;;22.50;99.90;;;;;;5106671;28;20248;-72
2023/06/09 10:56:53;;;;;;;8.68;7.28;;;22.60;99.90;;;;;;5103563;28;20745;-73
2023/06/09 11:03:14;;;;;;;6.95;5.65;;;22.90;99.90;;;;;;5084101;28;20200;-73
2023/06/09 11:05:42;;;;;;;11.00;6.25;;;22.90;99.90;;;;;;5111153;28;20252;-72
2023/06/09 11:08:09;;;;;;;9.30;6.53;;;22.90;99.90;;;;;;5095101;28;20267;-72
2023/06/09 11:10:38;;;;;;;9.82;6.43;;;22.60;99.90;;;;;;5094147;28;20231;-73
2023/06/09 11:13:40;;;;;;;8.73;6.20;;;22.60;99.90;;;;;;5099417;28;20236;-72
2023/06/09 11:16:09;;;;;;;6.55;5.82;;;22.60;99.90;;;;;;5101927;28;20236;-72
2023/06/09 11:18:38;;;;;;;9.07;6.72;;;22.60;99.90;;;;;;5111230;28;20213;-72
2023/06/09 11:21:13;;;;;;;8.13;7.15;;;22.70;99.90;;;;;;5109149;28;20238;-72
2023/06/09 11:24:03;;;;;;;8.70;5.70;;;22.70;99.90;;;;;;5093912;28;20548;-72
2023/06/09 11:26:31;;;;;;;9.13;6.75;;;22.50;99.90;;;;;;5096375;28;20205;-72
2023/06/09 11:29:00;;;;;;;10.90;8.32;;;22.50;99.90;;;;;;5094605;28;20263;-72
2023/06/09 11:31:28;;;;;;;8.73;7.43;;;22.50;99.90;;;;;;5102051;28;20201;-72
2023/06/09 11:33:55;;;;;;;8.95;7.47;;;22.50;99.90;;;;;;5110569;28;20212;-72
2023/06/09 11:36:29;;;;;;;9.80;7.05;;;22.40;99.90;;;;;;5101461;28;20244;-72
2023/06/09 11:39:06;;;;;;;7.43;6.72;;;22.50;99.90;;;;;;5106857;28;20205;-72
2023/06/09 11:41:34;;;;;;;12.15;6.97;;;22.50;99.90;;;;;;5108498;28;20607;-72
2023/06/09 11:44:02;;;;;;;7.03;6.43;;;22.60;99.90;;;;;;5110066;28;20240;-72
2023/06/09 11:46:33;;;;;;;8.50;7.43;;;22.50;99.90;;;;;;5095607;28;20241;-72
2023/06/09 11:49:06;;;;;;;6.85;6.15;;;22.60;99.90;;;;;;5093224;28;20233;-72
2023/06/09 11:51:57;;;;;;;10.10;6.60;;;22.60;99.90;;;;;;5100946;28;20259;-72
2023/06/09 11:54:39;;;;;;;8.02;7.22;;;22.70;99.90;;;;;;5087859;28;20306;-72
2023/06/09 11:57:06;;;;;;;7.20;5.93;;;22.60;99.90;;;;;;5097352;28;20660;-73
2023/06/09 11:59:35;;;;;;;7.07;6.38;;;22.70;99.90;;;;;;5096979;28;20288;-74
2023/06/09 12:02:01;;;;;;;7.95;7.20;;;22.70;99.90;;;;;;5109303;28;20213;-75
2023/06/09 12:04:28;;;;;;;7.28;6.57;;;22.80;99.90;;;;;;5093002;28;20228;-74
2023/06/09 12:06:55;;;;;;;10.57;8.43;;;22.90;99.90;;;;;;5091172;28;20233;-74
2023/06/09 12:09:24;;;;;;;10.65;8.10;;;22.70;99.90;;;;;;5091881;28;20218;-74
2023/06/09 12:11:54;;;;;;;9.68;6.97;;;22.60;99.90;;;;;;5093477;28;20250;-74
2023/06/09 12:14:22;;;;;;;9.52;7.00;;;22.50;99.90;;;;;;5093031;28;20204;-74
2023/06/09 12:16:51;;;;;;;8.43;7.60;;;22.50;99.90;;;;;;5096668;28;20209;-75
2023/06/09 12:19:19;;;;;;;8.23;7.43;;;22.60;99.90;;;;;;5097194;28;20198;-75
2023/06/09 12:21:49;;;;;;;8.75;7.88;;;22.70;99.90;;;;;;5095932;28;20564;-75
2023/06/09 12:24:16;;;;;;;10.77;7.85;;;22.90;99.90;;;;;;5097952;28;20586;-75
2023/06/09 12:26:47;;;;;;;10.98;7.80;;;23.00;99.90;;;;;;5096983;28;20232;-75
2023/06/09 12:29:14;;;;;;;9.13;8.27;;;23.40;99.90;;;;;;5099546;28;20215;-75
2023/06/09 12:31:45;;;;;;;8.25;7.25;;;23.40;99.90;;;;;;5096627;28;20677;-75
2023/06/09 12:34:24;;;;;;;7.70;6.88;;;23.70;99.90;;;;;;5094975;28;20586;-75
2023/06/09 12:36:51;;;;;;;9.70;8.23;;;23.90;99.90;;;;;;5095573;28;20201;-75
2023/06/09 12:39:18;;;;;;;8.95;8.05;;;23.70;99.90;;;;;;5096781;28;20279;-75
2023/06/09 12:41:45;;;;;;;9.20;8.07;;;23.60;99.90;;;;;;5095768;28;20616;-74
2023/06/09 12:44:20;;;;;;;8.65;7.75;;;23.90;99.90;;;;;;5095664;28;20204;-75
2023/06/09 12:46:54;;;;;;;9.98;8.45;;;24.40;99.90;;;;;;5092855;28;20679;-75
2023/06/09 12:49:29;;;;;;;9.73;8.73;;;24.10;99.90;;;;;;5098464;28;20594;-75
2023/06/09 12:51:56;;;;;;;10.18;8.60;;;24.10;99.90;;;;;;5093654;28;20691;-74
2023/06/09 12:54:23;;;;;;;8.93;8.05;;;23.70;99.90;;;;;;5097557;28;20263;-74
2023/06/09 12:56:50;;;;;;;7.95;7.28;;;23.70;99.90;;;;;;5093868;28;20255;-75